Time;durP1;ratioP1;P1;durP2;ratioP2;P2;SDS_P1;SDS_P2;PMS_P1;PMS_P2;Temp;Humidity;BMP_temperature;BMP_pressure;BME280_temperature;BME280_humidity;BME280_pressure;Samples;Min_cycle;Max_cycle;Signal;HPM_P1;HPM_P2
2023/09/11 00:02:23;;;;;;;19.30;12.57;;;;;;;-145.18;100.00;46660.41;5086051;28;20531;-66
2023/09/11 00:04:48;;;;;;;19.57;12.77;;;;;;;-145.18;100.00;46660.41;5095011;28;20032;-66
2023/09/11 00:07:14;;;;;;;16.20;12.97;;;;;;;-145.18;100.00;46660.41;5093831;28;20404;-66
2023/09/11 00:09:39;;;;;;;18.30;13.57;;;;;;;-145.18;100.00;46660.41;5094376;28;20035;-66
2023/09/11 00:12:05;;;;;;;15.50;13.10;;;;;;;-145.18;100.00;46660.41;5093067;28;20095;-66
2023/09/11 00:14:31;;;;;;;17.80;12.77;;;;;;;-145.18;100.00;46660.41;5094830;28;20028;-66
2023/09/11 00:16:56;;;;;;;17.40;13.47;;;;;;;-145.18;100.00;46656.50;5093745;28;20061;-66
2023/09/11 00:19:22;;;;;;;20.00;13.40;;;;;;;-145.18;100.00;46658.44;5093458;28;20546;-66
2023/09/11 00:21:47;;;;;;;15.83;13.20;;;;;;;-145.18;100.00;46660.41;5096240;28;20039;-66
2023/09/11 00:24:13;;;;;;;16.93;12.77;;;;;;;-145.18;100.00;46658.44;5090904;28;20056;-66
2023/09/11 00:26:39;;;;;;;18.80;13.80;;;;;;;-145.18;100.00;46660.41;5086021;28;20044;-66
2023/09/11 00:29:04;;;;;;;17.47;12.97;;;;;;;-145.18;100.00;46660.41;5090572;28;20032;-66
2023/09/11 00:31:29;;;;;;;20.67;14.17;;;;;;;-145.18;100.00;46658.44;5085761;28;20032;-66
2023/09/11 00:33:55;;;;;;;18.83;13.33;;;;;;;-145.18;100.00;46660.41;5088276;28;20507;-66
2023/09/11 00:36:21;;;;;;;22.27;12.43;;;;;;;-145.18;100.00;46660.41;5086485;28;20067;-65
2023/09/11 00:38:47;;;;;;;17.37;12.80;;;;;;;-145.18;100.00;46658.44;5092678;28;20132;-66
2023/09/11 00:41:13;;;;;;;16.77;13.37;;;;;;;-145.18;100.00;46660.41;5087825;28;20029;-66
2023/09/11 00:43:38;;;;;;;21.80;13.53;;;;;;;-145.18;100.00;46660.41;5081050;28;20030;-65
2023/09/11 00:46:05;;;;;;;24.57;15.50;;;;;;;-145.18;100.00;46660.41;5091825;28;20028;-66
2023/09/11 00:48:31;;;;;;;22.60;14.27;;;;;;;-145.18;100.00;46660.41;5089434;28;20036;-66
2023/09/11 00:50:57;;;;;;;21.13;14.70;;;;;;;-145.18;100.00;46660.41;5085394;28;20050;-66
2023/09/11 00:53:22;;;;;;;20.27;14.50;;;;;;;-145.18;100.00;46658.44;5081449;28;20032;-65
2023/09/11 00:55:48;;;;;;;20.50;15.13;;;;;;;-145.18;100.00;46660.41;5084114;28;20024;-66
2023/09/11 00:58:16;;;;;;;21.07;14.70;;;;;;;-145.18;100.00;46660.41;5086156;28;20481;-66
2023/09/11 01:00:44;;;;;;;24.93;14.87;;;;;;;-145.18;100.00;46660.41;5083042;28;20047;-66
2023/09/11 01:03:13;;;;;;;17.30;13.20;;;;;;;-145.18;100.00;46660.41;5088447;28;20499;-66
2023/09/11 01:05:39;;;;;;;19.37;14.30;;;;;;;-145.18;100.00;46660.41;5085174;28;20060;-66
2023/09/11 01:08:05;;;;;;;20.87;14.90;;;;;;;-145.18;100.00;46660.41;5080261;28;20560;-66
2023/09/11 01:10:30;;;;;;;22.87;14.27;;;;;;;-145.18;100.00;46660.41;5080212;28;20024;-66
2023/09/11 01:12:56;;;;;;;20.93;14.23;;;;;;;-145.18;100.00;46656.50;5089555;28;20024;-66
2023/09/11 01:15:27;;;;;;;21.23;13.70;;;;;;;-145.18;100.00;46660.41;5093185;28;20070;-66
2023/09/11 01:18:34;;;;;;;15.87;13.80;;;;;;;-145.18;100.00;46660.41;5093973;28;20449;-67
2023/09/11 01:21:21;;;;;;;20.53;13.80;;;;;;;-145.18;100.00;46660.41;5090088;28;20063;-66
2023/09/11 01:24:22;;;;;;;18.67;13.60;;;;;;;-145.18;100.00;46658.44;5080634;28;20031;-66
2023/09/11 01:27:02;;;;;;;19.20;13.73;;;;;;;-145.18;100.00;46660.41;5088083;28;20043;-66
2023/09/11 01:29:33;;;;;;;18.30;13.90;;;;;;;-145.18;100.00;46660.41;5086625;28;20044;-66
2023/09/11 01:32:00;;;;;;;17.20;13.03;;;;;;;-145.18;100.00;46658.44;5085613;28;20025;-66
2023/09/11 01:34:25;;;;;;;18.23;13.30;;;;;;;-145.18;100.00;46660.41;5087124;28;20066;-66
2023/09/11 01:36:50;;;;;;;21.03;13.50;;;;;;;-145.18;100.00;46658.44;5085957;28;20102;-66
2023/09/11 01:39:16;;;;;;;22.60;13.80;;;;;;;-145.18;100.00;46660.41;5093208;28;20041;-66
2023/09/11 01:41:45;;;;;;;18.57;13.90;;;;;;;-145.18;100.00;46660.41;5088591;28;20058;-66
2023/09/11 01:44:21;;;;;;;19.40;14.03;;;;;;;-145.18;100.00;46660.41;5093383;28;20024;-66
2023/09/11 01:46:48;;;;;;;21.53;13.87;;;;;;;-145.18;100.00;46656.50;5088121;28;20039;-66
2023/09/11 01:49:15;;;;;;;21.63;14.23;;;;;;;-145.18;100.00;46660.41;5088671;28;20040;-66
2023/09/11 01:51:41;;;;;;;19.27;14.23;;;;;;;-145.18;100.00;46660.41;5085114;28;20060;-66
2023/09/11 01:54:08;;;;;;;19.97;14.93;;;;;;;-145.18;100.00;46658.44;5091613;28;20491;-66
2023/09/11 01:56:34;;;;;;;21.43;15.10;;;;;;;-145.18;100.00;46658.44;5090628;28;20036;-66
2023/09/11 01:58:59;;;;;;;25.33;14.13;;;;;;;-145.18;100.00;46660.41;5088657;28;20051;-66
2023/09/11 02:01:26;;;;;;;21.13;14.77;;;;;;;-145.18;100.00;46660.41;5088978;28;20419;-66
2023/09/11 02:03:51;;;;;;;19.67;14.87;;;;;;;-145.18;100.00;46658.44;5089293;28;20035;-66
2023/09/11 02:06:17;;;;;;;19.90;13.97;;;;;;;-145.18;100.00;46660.41;5087864;28;20028;-66
2023/09/11 02:08:42;;;;;;;18.57;14.77;;;;;;;-145.18;100.00;46658.44;5091925;28;20479;-66
2023/09/11 02:11:07;;;;;;;20.70;14.50;;;;;;;-145.18;100.00;46658.44;5088137;28;20031;-66
2023/09/11 02:13:34;;;;;;;14.83;12.57;;;;;;;-145.18;100.00;46660.41;5092175;28;20149;-66
2023/09/11 02:16:00;;;;;;;20.67;13.10;;;;;;;-145.18;100.00;46658.44;5086933;28;20079;-59
2023/09/11 02:18:25;;;;;;;15.97;13.50;;;;;;;-145.18;100.00;46660.41;5088484;28;20426;-59
2023/09/11 02:20:50;;;;;;;21.57;13.90;;;;;;;-145.18;100.00;46658.44;5087324;28;20123;-59
2023/09/11 02:23:16;;;;;;;16.97;13.90;;;;;;;-145.18;100.00;46660.41;5121547;27;20028;-59
2023/09/11 02:25:41;;;;;;;19.37;13.30;;;;;;;-145.18;100.00;46654.53;5087302;28;20522;-59
2023/09/11 02:28:07;;;;;;;19.37;14.13;;;;;;;-145.18;100.00;46658.44;5086991;28;20032;-59
2023/09/11 02:30:33;;;;;;;22.07;14.47;;;;;;;-145.18;100.00;46660.41;5089853;28;20388;-60
2023/09/11 02:32:58;;;;;;;24.87;14.93;;;;;;;-145.18;100.00;46658.44;5091008;28;20024;-59
2023/09/11 02:35:23;;;;;;;22.50;14.57;;;;;;;-145.18;100.00;46656.50;5091222;28;20106;-59
2023/09/11 02:37:49;;;;;;;23.60;15.53;;;;;;;-145.18;100.00;46652.59;5089475;28;20035;-59
2023/09/11 02:40:14;;;;;;;21.27;15.43;;;;;;;-145.18;100.00;46660.41;5089754;28;20127;-59
2023/09/11 02:42:39;;;;;;;26.00;15.03;;;;;;;-145.18;100.00;46656.50;5089608;28;20024;-59
2023/09/11 02:45:05;;;;;;;23.50;15.23;;;;;;;-145.18;100.00;46654.53;5085967;28;20058;-59
2023/09/11 02:47:31;;;;;;;21.77;15.40;;;;;;;-145.18;100.00;46656.50;5085110;28;20035;-59
2023/09/11 02:49:56;;;;;;;25.57;15.93;;;;;;;-145.18;100.00;46656.50;5078881;28;20377;-59
2023/09/11 02:52:21;;;;;;;18.87;14.23;;;;;;;-145.18;100.00;46656.50;5081849;28;20067;-59
2023/09/11 02:54:47;;;;;;;20.37;15.53;;;;;;;-145.18;100.00;46660.41;5083876;28;20496;-59
2023/09/11 02:57:12;;;;;;;20.73;16.00;;;;;;;-145.18;100.00;46656.50;5083506;28;20046;-59
2023/09/11 02:59:38;;;;;;;24.90;15.97;;;;;;;-145.18;100.00;46654.53;5087049;28;20387;-59
2023/09/11 03:02:03;;;;;;;19.67;14.70;;;;;;;-145.18;100.00;46660.41;5082331;28;20108;-59
2023/09/11 03:04:29;;;;;;;21.00;15.17;;;;;;;-145.18;100.00;46658.44;5080687;28;20518;-60
2023/09/11 03:06:54;;;;;;;21.47;14.73;;;;;;;-145.18;100.00;46652.59;5085652;28;20109;-59
2023/09/11 03:09:20;;;;;;;19.97;15.00;;;;;;;-145.18;100.00;46656.50;5079628;28;20099;-59
2023/09/11 03:11:45;;;;;;;19.63;15.37;;;;;;;-145.18;100.00;46652.59;5079645;28;20028;-59
2023/09/11 03:14:11;;;;;;;21.53;15.17;;;;;;;-145.18;100.00;46656.50;5082933;28;20028;-59
2023/09/11 03:16:43;;;;;;;22.23;14.80;;;;;;;-145.18;100.00;46650.63;5082679;28;20059;-59
2023/09/11 03:19:12;;;;;;;21.87;15.27;;;;;;;-145.18;100.00;46654.53;5081673;28;20020;-59
2023/09/11 03:21:37;;;;;;;20.90;15.57;;;;;;;-145.18;100.00;46654.53;5089626;28;20040;-59
2023/09/11 03:24:03;;;;;;;19.93;15.97;;;;;;;-145.18;100.00;46640.88;5091059;28;20093;-60
2023/09/11 03:26:29;;;;;;;20.93;15.93;;;;;;;-145.18;100.00;46656.50;5082911;28;20063;-66
2023/09/11 03:28:55;;;;;;;22.17;16.33;;;;;;;-145.18;100.00;46650.63;5081033;28;20020;-66
2023/09/11 03:31:20;;;;;;;20.87;15.67;;;;;;;-145.18;100.00;46652.59;5076702;28;20388;-66
2023/09/11 03:33:46;;;;;;;27.37;14.83;;;;;;;-145.18;100.00;46642.81;5080725;28;20089;-66
2023/09/11 03:36:16;;;;;;;19.73;14.37;;;;;;;-145.18;100.00;46650.63;5081318;28;20036;-66
2023/09/11 03:38:42;;;;;;;24.33;14.20;;;;;;;-145.18;100.00;46650.63;5080456;28;20020;-66
2023/09/11 03:41:07;;;;;;;21.83;16.73;;;;;;;-145.18;100.00;46650.63;5082025;28;20036;-66
2023/09/11 03:43:32;;;;;;;20.93;15.03;;;;;;;-145.18;100.00;46640.88;5084163;28;20462;-66
2023/09/11 03:45:58;;;;;;;17.37;14.13;;;;;;;-145.18;100.00;46652.59;5084264;28;20107;-66
2023/09/11 03:48:23;;;;;;;19.23;14.77;;;;;;;-145.18;100.00;46650.63;5084488;28;20043;-66
2023/09/11 03:50:49;;;;;;;19.00;14.07;;;;;;;-145.18;100.00;46652.59;5086431;28;20047;-66
2023/09/11 03:53:14;;;;;;;21.30;15.53;;;;;;;-145.18;100.00;46654.53;5076412;28;20024;-66
2023/09/11 03:55:40;;;;;;;20.43;14.67;;;;;;;-145.18;100.00;46650.63;5078004;28;20036;-66
2023/09/11 03:58:05;;;;;;;20.17;13.87;;;;;;;-145.18;100.00;46654.53;5086817;28;20036;-66
2023/09/11 04:00:30;;;;;;;23.10;14.30;;;;;;;-145.18;100.00;46656.50;5083254;28;20494;-66
2023/09/11 04:02:56;;;;;;;22.57;15.40;;;;;;;-145.18;100.00;46652.59;5075481;28;20033;-66
2023/09/11 04:05:21;;;;;;;22.47;13.90;;;;;;;-145.18;100.00;46656.50;5088438;28;20110;-66
2023/09/11 04:07:46;;;;;;;19.63;14.57;;;;;;;-145.18;100.00;46656.50;5076496;28;20047;-66
2023/09/11 04:10:12;;;;;;;18.70;13.70;;;;;;;-145.18;100.00;46654.53;5074435;28;20095;-64
2023/09/11 04:12:37;;;;;;;16.60;13.80;;;;;;;-145.18;100.00;46656.50;5078519;28;20113;-66
2023/09/11 04:15:03;;;;;;;20.33;13.80;;;;;;;-145.18;100.00;46656.50;5086566;28;20387;-66
2023/09/11 04:17:28;;;;;;;21.23;12.50;;;;;;;-145.18;100.00;46654.53;5093766;28;20111;-66
2023/09/11 04:19:54;;;;;;;16.20;13.17;;;;;;;-145.18;100.00;46660.41;5092792;28;20518;-66
2023/09/11 04:22:19;;;;;;;15.27;12.90;;;;;;;-145.18;100.00;46660.41;5090207;28;20039;-66
2023/09/11 04:24:45;;;;;;;17.20;12.20;;;;;;;-145.18;100.00;46656.50;5092777;28;20134;-66
2023/09/11 04:27:10;;;;;;;16.13;12.30;;;;;;;-145.18;100.00;46656.50;5091182;28;20452;-66
2023/09/11 04:29:35;;;;;;;18.50;12.53;;;;;;;-145.18;100.00;46658.44;5092732;28;20043;-66
2023/09/11 04:32:01;;;;;;;17.70;12.93;;;;;;;-145.18;100.00;46658.44;5091087;28;20024;-66
2023/09/11 04:34:27;;;;;;;17.77;12.70;;;;;;;-145.18;100.00;46658.44;5091839;28;20035;-60
2023/09/11 04:36:52;;;;;;;25.00;12.23;;;;;;;-145.18;100.00;46656.50;5089332;28;20066;-66
2023/09/11 04:39:18;;;;;;;16.33;12.70;;;;;;;-145.18;100.00;46660.41;5091801;28;20039;-66
2023/09/11 04:41:43;;;;;;;17.13;11.93;;;;;;;-145.18;100.00;46660.41;5087590;28;20033;-66
2023/09/11 04:44:09;;;;;;;18.27;11.70;;;;;;;-145.18;100.00;46660.41;5091719;28;20036;-66
2023/09/11 04:46:34;;;;;;;15.97;12.17;;;;;;;-145.18;100.00;46660.41;5089630;28;20472;-66
2023/09/11 04:48:59;;;;;;;18.23;12.00;;;;;;;-145.18;100.00;46660.41;5089147;28;20442;-66
2023/09/11 04:51:25;;;;;;;16.40;11.87;;;;;;;-145.18;100.00;46660.41;5081889;28;20032;-66
2023/09/11 04:53:50;;;;;;;19.70;11.00;;;;;;;-145.18;100.00;46660.41;5093051;28;20047;-66
2023/09/11 04:56:16;;;;;;;20.77;11.67;;;;;;;-145.18;100.00;46660.41;5123592;27;20545;-66
2023/09/11 04:58:41;;;;;;;20.77;12.47;;;;;;;-145.18;100.00;46660.41;5103716;28;20032;-66
2023/09/11 05:01:08;;;;;;;17.57;12.97;;;;;;;-145.18;100.00;46660.41;5092151;28;20120;-66
2023/09/11 05:03:34;;;;;;;14.40;11.70;;;;;;;-145.18;100.00;46660.41;5093198;28;20076;-66
2023/09/11 05:05:59;;;;;;;19.37;12.33;;;;;;;-145.18;100.00;46660.41;5089850;28;20032;-66
2023/09/11 05:08:24;;;;;;;16.57;11.90;;;;;;;-145.18;100.00;46660.41;5091532;28;20035;-66
2023/09/11 05:10:50;;;;;;;22.60;12.17;;;;;;;-145.18;100.00;46660.41;5090857;28;20093;-66
2023/09/11 05:13:15;;;;;;;19.87;11.87;;;;;;;-145.18;100.00;46660.41;5092385;28;20036;-66
2023/09/11 05:15:41;;;;;;;18.73;11.70;;;;;;;-145.18;100.00;46660.41;5091385;28;20032;-67
2023/09/11 05:18:06;;;;;;;15.87;11.10;;;;;;;-145.18;100.00;46660.41;5090156;28;20028;-66
2023/09/11 05:20:31;;;;;;;17.10;12.10;;;;;;;-145.18;100.00;46660.41;5073879;28;20036;-66
2023/09/11 05:22:57;;;;;;;16.77;12.43;;;;;;;-145.18;100.00;46660.41;5074925;28;20098;-66
2023/09/11 05:25:23;;;;;;;16.83;12.73;;;;;;;-145.18;100.00;46660.41;5074799;28;20035;-66
2023/09/11 05:27:49;;;;;;;20.23;13.00;;;;;;;-145.18;100.00;46660.41;5074036;28;20028;-66
2023/09/11 05:30:14;;;;;;;18.57;12.33;;;;;;;-145.18;100.00;46660.41;5074028;28;20081;-66
2023/09/11 05:32:40;;;;;;;16.83;12.53;;;;;;;-145.18;100.00;46660.41;5081584;28;20017;-66
2023/09/11 05:35:06;;;;;;;17.40;12.27;;;;;;;-145.18;100.00;46660.41;5079105;28;20487;-66
2023/09/11 05:37:32;;;;;;;17.57;13.13;;;;;;;-145.18;100.00;46660.41;5073670;28;20025;-66
2023/09/11 05:39:58;;;;;;;18.57;12.07;;;;;;;-145.18;100.00;46660.41;5076146;28;20040;-66
2023/09/11 05:42:24;;;;;;;16.43;12.57;;;;;;;-145.18;100.00;46660.41;5085975;28;20021;-66
2023/09/11 05:44:49;;;;;;;20.17;12.73;;;;;;;-145.18;100.00;46660.41;5079724;28;20456;-59
2023/09/11 05:47:15;;;;;;;18.07;12.37;;;;;;;-145.18;100.00;46660.41;5085392;28;20025;-60
2023/09/11 05:49:40;;;;;;;21.70;12.27;;;;;;;-145.18;100.00;46660.41;5090920;28;20043;-59
2023/09/11 05:52:06;;;;;;;21.50;11.67;;;;;;;-145.18;100.00;46660.41;5078593;28;20557;-59
2023/09/11 05:54:33;;;;;;;15.70;11.53;;;;;;;-145.18;100.00;46660.41;5081982;28;20024;-59
2023/09/11 05:56:59;;;;;;;21.53;11.53;;;;;;;-145.18;100.00;46660.41;5085811;28;20028;-59
2023/09/11 05:59:25;;;;;;;14.63;11.13;;;;;;;-145.18;100.00;46660.41;5090116;28;20044;-59
2023/09/11 06:01:50;;;;;;;19.83;11.43;;;;;;;-145.18;100.00;46660.41;5113600;27;20381;-59
2023/09/11 06:04:15;;;;;;;16.07;11.60;;;;;;;-145.18;100.00;46660.41;5078461;28;20031;-59
2023/09/11 06:06:41;;;;;;;16.33;10.73;;;;;;;-145.18;100.00;46660.41;5075731;28;20476;-59
2023/09/11 06:09:08;;;;;;;12.87;10.63;;;;;;;-145.18;100.00;46660.41;5078537;28;20027;-59
2023/09/11 06:11:34;;;;;;;14.63;10.70;;;;;;;-145.18;100.00;46660.41;5075784;28;20103;-59
2023/09/11 06:14:00;;;;;;;18.17;11.00;;;;;;;-145.18;100.00;46660.41;5077724;28;20039;-59
2023/09/11 06:16:25;;;;;;;19.17;11.40;;;;;;;-145.18;100.00;46660.41;5075754;28;20024;-59
2023/09/11 06:18:50;;;;;;;17.20;11.57;;;;;;;-145.18;100.00;46660.41;5078526;28;20497;-63
2023/09/11 06:21:16;;;;;;;17.57;10.80;;;;;;;-145.18;100.00;46660.41;5076330;28;20468;-60
2023/09/11 06:23:41;;;;;;;20.93;11.87;;;;;;;-145.18;100.00;46660.41;5084840;28;20040;-60
2023/09/11 06:26:08;;;;;;;17.60;11.93;;;;;;;-145.18;100.00;46660.41;5076509;28;20397;-59
2023/09/11 06:28:33;;;;;;;21.73;12.33;;;;;;;-145.18;100.00;46660.41;5076256;28;20086;-59
2023/09/11 06:30:59;;;;;;;18.07;11.57;;;;;;;-145.18;100.00;46660.41;5077085;28;20052;-59
2023/09/11 06:33:27;;;;;;;15.27;11.17;;;;;;;-145.18;100.00;46660.41;5075668;28;20563;-60
2023/09/11 06:35:52;;;;;;;17.50;11.50;;;;;;;-145.18;100.00;46660.41;5077760;28;20081;-59
2023/09/11 06:38:18;;;;;;;18.07;11.87;;;;;;;-145.18;100.00;46660.41;5073212;28;20439;-59
2023/09/11 06:40:44;;;;;;;16.57;11.57;;;;;;;-145.18;100.00;46660.41;5073110;28;20023;-59
2023/09/11 06:43:09;;;;;;;20.07;12.47;;;;;;;-145.18;100.00;46660.41;5080646;28;20027;-60
2023/09/11 06:45:35;;;;;;;21.60;12.80;;;;;;;-145.18;100.00;46660.41;5087934;28;20097;-59
2023/09/11 06:48:01;;;;;;;22.60;12.57;;;;;;;-145.18;100.00;46631.09;5092086;28;20055;-59
2023/09/11 06:50:27;;;;;;;18.10;12.10;;;;;;;-145.18;100.00;46660.41;5091537;28;20143;-59
2023/09/11 06:52:52;;;;;;;19.03;13.10;;;;;;;-145.18;100.00;46660.41;5089174;28;20024;-59
2023/09/11 06:55:17;;;;;;;21.20;13.13;;;;;;;-145.18;100.00;46660.41;5088433;28;20039;-59
2023/09/11 06:57:57;;;;;;;23.17;13.77;;;;;;;-145.18;100.00;46660.41;5089706;28;20042;-60
2023/09/11 07:00:23;;;;;;;16.73;12.33;;;;;;;-145.18;100.00;46660.41;5088678;28;20085;-60
2023/09/11 07:02:49;;;;;;;21.10;13.70;;;;;;;-145.18;100.00;46631.09;5090619;28;20016;-59
2023/09/11 07:05:18;;;;;;;20.10;13.93;;;;;;;-145.18;100.00;46625.22;5090298;28;20399;-59
2023/09/11 07:07:44;;;;;;;20.27;14.77;;;;;;;-145.18;100.00;46627.19;5091772;28;20020;-60
2023/09/11 07:10:11;;;;;;;20.77;13.70;;;;;;;-145.18;100.00;46629.13;5087938;28;20027;-60
2023/09/11 07:12:37;;;;;;;19.43;15.27;;;;;;;-145.18;100.00;46625.22;5088303;28;20390;-59
2023/09/11 07:15:05;;;;;;;25.53;16.60;;;;;;;-145.18;100.00;46633.06;5083245;28;20081;-59
2023/09/11 07:17:30;;;;;;;23.53;15.90;;;;;;;-145.18;100.00;46629.13;5086376;28;20031;-59
2023/09/11 07:19:55;;;;;;;24.50;15.47;;;;;;;-145.18;100.00;46631.09;5088313;28;20104;-60
2023/09/11 07:22:21;;;;;;;29.17;16.50;;;;;;;-145.18;100.00;46633.06;5089979;28;20055;-60
2023/09/11 07:24:46;;;;;;;24.87;16.67;;;;;;;-145.18;100.00;46633.06;5080140;28;20024;-60
2023/09/11 07:27:12;;;;;;;23.50;16.03;;;;;;;-145.18;100.00;46631.09;5077461;28;20461;-60
2023/09/11 07:29:37;;;;;;;29.73;17.57;;;;;;;-145.18;100.00;46635.00;5078282;28;20475;-59
2023/09/11 07:32:03;;;;;;;28.70;17.07;;;;;;;-145.18;100.00;46633.06;5088781;28;20024;-59
2023/09/11 07:34:28;;;;;;;24.93;17.60;;;;;;;-145.18;100.00;46629.13;5082692;28;20020;-59
2023/09/11 07:36:53;;;;;;;23.53;17.73;;;;;;;-145.18;100.00;46638.91;5084462;28;20027;-59
2023/09/11 07:39:19;;;;;;;24.73;17.00;;;;;;;-145.18;100.00;46636.94;5075055;28;20510;-59
2023/09/11 07:41:45;;;;;;;26.40;17.77;;;;;;;-145.18;100.00;46633.06;5081789;28;20107;-60
2023/09/11 07:44:10;;;;;;;34.70;18.60;;;;;;;-145.18;100.00;46633.06;5080795;28;20081;-59
2023/09/11 07:46:35;;;;;;;28.87;18.83;;;;;;;-145.18;100.00;46633.06;5080253;28;20028;-59
2023/09/11 07:49:01;;;;;;;24.70;18.03;;;;;;;-145.18;100.00;46633.06;5089614;28;20028;-59
2023/09/11 07:51:26;;;;;;;23.43;17.50;;;;;;;-145.18;100.00;46629.13;5082636;28;20021;-60
2023/09/11 07:53:51;;;;;;;30.43;18.07;;;;;;;-145.18;100.00;46629.13;5073357;28;20095;-60
2023/09/11 07:56:17;;;;;;;24.80;18.23;;;;;;;-145.18;100.00;46635.00;5072824;28;20500;-60
2023/09/11 07:58:42;;;;;;;25.60;18.75;;;;;;;-145.18;100.00;46631.09;5085451;28;20110;-60
2023/09/11 08:01:08;;;;;;;32.92;19.33;;;;;;;-145.18;100.00;46633.06;5090964;28;20476;-60
2023/09/11 08:03:34;;;;;;;26.43;18.43;;;;;;;-145.18;100.00;46636.94;5088649;28;20032;-59
2023/09/11 08:06:00;;;;;;;29.15;20.95;;;;;;;-145.18;100.00;46631.09;5086895;28;20132;-60
2023/09/11 08:08:26;;;;;;;29.80;19.88;;;;;;;-145.18;100.00;46627.19;5091848;28;20507;-60
2023/09/11 08:10:52;;;;;;;29.70;19.83;;;;;;;-145.18;100.00;46636.94;5090650;28;20024;-60
2023/09/11 08:13:18;;;;;;;27.15;19.27;;;;;;;-145.18;100.00;46635.00;5089681;28;20024;-60
2023/09/11 08:15:43;;;;;;;26.40;19.67;;;;;;;-145.18;100.00;46636.94;5086233;28;20454;-60
2023/09/11 08:18:09;;;;;;;27.75;19.45;;;;;;;-145.18;100.00;46633.06;5089484;28;20036;-60
2023/09/11 08:20:35;;;;;;;24.52;18.88;;;;;;;-145.18;100.00;46631.09;5097698;28;20028;-60
2023/09/11 08:23:01;;;;;;;24.85;17.85;;;;;;;-145.18;100.00;46633.06;5094676;28;20036;-60
2023/09/11 08:25:27;;;;;;;27.50;18.58;;;;;;;-145.18;100.00;46638.91;5089511;28;20028;-60
2023/09/11 08:27:52;;;;;;;29.23;19.70;;;;;;;-145.18;100.00;46636.94;5089805;28;20055;-59
2023/09/11 08:30:18;;;;;;;25.77;17.75;;;;;;;-145.18;100.00;46638.91;5087959;28;20407;-60
2023/09/11 08:32:44;;;;;;;31.48;19.58;;;;;;;-145.18;100.00;46638.91;5092779;28;20074;-60
2023/09/11 08:35:09;;;;;;;28.48;18.08;;;;;;;-145.18;100.00;46640.88;5087980;28;20471;-60
2023/09/11 08:37:35;;;;;;;27.40;17.05;;;;;;;-145.18;100.00;46640.88;5085924;28;20032;-60
2023/09/11 08:40:00;;;;;;;27.63;18.67;;;;;;;-145.18;100.00;46638.91;5088238;28;20052;-60
2023/09/11 08:42:26;;;;;;;26.90;16.73;;;;;;;-145.18;100.00;46642.81;5083855;28;20036;-60
2023/09/11 08:44:51;;;;;;;25.15;17.30;;;;;;;-145.18;100.00;46642.81;5088781;28;20051;-60
2023/09/11 08:47:19;;;;;;;28.15;16.63;;;;;;;-145.18;100.00;46644.78;5101697;28;21464;-60
2023/09/11 08:49:51;;;;;;;27.27;16.88;;;;;;;-145.18;100.00;46648.69;5088766;28;20052;-60
2023/09/11 08:52:18;;;;;;;27.42;17.15;;;;;;;-145.18;100.00;46644.78;5087289;28;20458;-60
2023/09/11 08:54:48;;;;;;;21.60;14.80;;;;;;;-145.18;100.00;46646.72;5091454;28;20119;-60
2023/09/11 08:57:15;;;;;;;26.35;14.68;;;;;;;-145.18;100.00;46646.72;5092756;28;20119;-60
2023/09/11 08:59:44;;;;;;;20.98;14.52;;;;;;;-145.18;100.00;46656.50;5089358;28;20111;-60
2023/09/11 09:02:11;;;;;;;19.98;13.00;;;;;;;-145.18;100.00;46664.31;5086958;28;20115;-59
2023/09/11 09:04:38;;;;;;;21.83;12.57;;;;;;;-145.18;100.00;46658.44;5090809;28;20058;-60
2023/09/11 09:07:06;;;;;;;22.00;13.63;;;;;;;-145.18;100.00;46662.34;5106669;28;20032;-60
2023/09/11 09:09:32;;;;;;;21.88;13.05;;;;;;;-145.18;100.00;46658.44;5088346;28;20042;-59
2023/09/11 09:11:58;;;;;;;21.42;13.65;;;;;;;-145.18;100.00;46660.41;5092356;28;20111;-60
2023/09/11 09:14:24;;;;;;;19.73;12.63;;;;;;;-145.18;100.00;46660.41;5092461;28;20112;-60
2023/09/11 09:16:50;;;;;;;19.70;12.85;;;;;;;-145.18;100.00;46660.41;5099145;28;20062;-60
2023/09/11 09:19:15;;;;;;;19.80;11.80;;;;;;;-145.18;100.00;46664.31;5090265;28;20153;-60
2023/09/11 09:22:04;;;;;;;17.00;11.60;;;;;;;-145.18;100.00;46650.63;5090566;28;20039;-60
2023/09/11 09:24:30;;;;;;;16.55;11.05;;;;;;;-145.18;100.00;46662.34;5090387;28;20084;-60
2023/09/11 09:27:01;;;;;;;19.70;12.00;;;;;;;-145.18;100.00;46593.97;5088199;28;20043;-61
2023/09/11 09:29:35;;;;;;;18.08;12.02;;;;;;;-145.18;100.00;46541.25;5080159;28;20035;-60
2023/09/11 09:32:02;;;;;;;14.75;10.52;;;;;;;-145.18;100.00;46547.09;5084459;28;20429;-60
2023/09/11 09:34:28;;;;;;;20.17;11.10;;;;;;;-145.18;100.00;46531.47;5087114;28;20375;-60
2023/09/11 09:36:54;;;;;;;16.00;9.38;;;;;;;-145.18;100.00;46531.47;5087542;28;20031;-60
2023/09/11 09:39:21;;;;;;;14.23;9.85;;;;;;;-145.18;100.00;46525.63;5097282;28;20035;-60
2023/09/11 09:42:01;;;;;;;15.48;10.43;;;;;;;-145.18;100.00;46539.28;5092018;28;20024;-60
2023/09/11 09:44:28;;;;;;;11.93;8.48;;;;;;;-145.18;100.00;46539.28;5091621;28;20020;-60
2023/09/11 09:46:53;;;;;;;14.25;8.80;;;;;;;-145.18;100.00;46529.53;5096861;28;20028;-60
2023/09/11 09:49:21;;;;;;;15.32;8.68;;;;;;;-145.18;100.00;46531.47;5095529;28;20047;-61
2023/09/11 09:51:47;;;;;;;18.83;10.68;;;;;;;-145.18;100.00;46533.44;5084121;28;20499;-61
2023/09/11 09:54:12;;;;;;;18.55;9.98;;;;;;;-145.18;100.00;46529.53;5079777;28;20103;-60
2023/09/11 09:56:39;;;;;;;13.55;7.65;;;;;;;-145.18;100.00;46525.63;5086365;28;20032;-60
2023/09/11 09:59:05;;;;;;;11.82;7.82;;;;;;;-145.18;100.00;46531.47;5086223;28;20040;-60
2023/09/11 10:01:30;;;;;;;13.70;8.88;;;;;;;-145.18;100.00;46533.44;5082717;28;20114;-60
2023/09/11 10:03:56;;;;;;;13.10;7.78;;;;;;;-145.18;100.00;46529.53;5087370;28;20547;-60
2023/09/11 10:06:31;;;;;;;18.88;6.88;;;;;;;-145.18;100.00;46533.44;5088018;28;20506;-60
2023/09/11 10:09:05;;;;;;;16.27;6.88;;;;;;;-145.18;100.00;46525.63;5080915;28;20059;-60
2023/09/11 10:11:32;;;;;;;11.20;6.70;;;;;;;-145.18;100.00;46525.63;5080589;28;20395;-60
2023/09/11 10:14:00;;;;;;;8.05;5.07;;;;;;;-145.18;100.00;46521.72;5087709;28;20032;-60
2023/09/11 10:16:26;;;;;;;9.55;5.07;;;;;;;-145.18;100.00;46511.94;5082683;28;20059;-60
2023/09/11 10:18:53;;;;;;;9.27;4.80;;;;;;;-145.18;100.00;46490.47;5088705;28;20038;-60
2023/09/11 10:21:19;;;;;;;11.98;5.18;;;;;;;-145.18;100.00;46496.31;5088503;28;20024;-60
2023/09/11 10:23:48;;;;;;;6.85;4.10;;;;;;;-145.18;100.00;46508.03;5094027;28;20028;-60
2023/09/11 10:26:23;;;;;;;11.57;5.20;;;;;;;-145.18;100.00;46504.13;5090790;28;20445;-60
2023/09/11 10:28:51;;;;;;;9.20;5.05;;;;;;;-145.18;100.00;46500.22;5078942;28;20047;-60
2023/09/11 10:31:23;;;;;;;8.02;4.88;;;;;;;-145.18;100.00;46492.41;5090022;28;20032;-60
2023/09/11 10:33:54;;;;;;;6.22;4.03;;;;;;;-145.18;100.00;46500.22;5087106;28;20023;-60
2023/09/11 10:36:22;;;;;;;9.80;4.00;;;;;;;-145.18;100.00;46472.88;5081830;28;20692;-60
2023/09/11 10:38:50;;;;;;;6.53;4.20;;;;;;;-145.18;100.00;46443.59;5099434;28;20115;-60
2023/09/11 10:41:16;;;;;;;11.02;4.22;;;;;;;-145.18;100.00;46470.94;5087574;28;20031;-60
2023/09/11 10:43:45;;;;;;;4.85;3.85;;;;;;;-145.18;100.00;46492.41;5081710;28;20379;-60
2023/09/11 10:46:22;;;;;;;4.88;3.85;;;;;;;-145.18;100.00;46498.28;5089870;28;20036;-60
2023/09/11 10:48:52;;;;;;;8.32;4.70;;;;;;;-145.18;100.00;46480.69;5086331;28;20050;-60
2023/09/11 10:51:18;;;;;;;7.28;3.47;;;;;;;-145.18;100.00;46484.59;5089531;28;20424;-60
2023/09/11 10:53:47;;;;;;;8.15;3.80;;;;;;;-145.18;100.00;46490.47;5081586;28;20096;-60